Terminal Aerodrome Forecast
Issued by NWS Charleston, WV

Current Version | Previous Version | Text Only | Print | Product List | Glossary Off
Versions: 1 2 3 4 5 6 7 8 9 10 11 12 13 14 15 16 17 18 19 20 21 22 23 24 25 26 27 28 29 30 31 32 33

000
FTUS41 KRLX 230333 AAA
TAFEKN
TAF AMD
KEKN 230333Z 2304/2324 13003KT 6SM BR OVC003
      TEMPO 2304/2306 2SM BR SCT002 BKN060
     FM230800 14003KT 2SM -SHRA OVC003
     FM231100 16003KT 3SM BR OVC015
     FM231500 18006KT P6SM BKN025=

USA.gov is the U.S. government's official web portal to all federal, state and local government web resources and services.